sensor_id;sensor_type;location;lat;lon;timestamp;temperature;humidity
14397;DHT22;50653;47.810;13.022;2023-03-29T00:01:07;3.40;70.30
14397;DHT22;50653;47.810;13.022;2023-03-29T00:03:35;3.50;70.40
14397;DHT22;50653;47.810;13.022;2023-03-29T00:06:02;3.50;69.50
14397;DHT22;50653;47.810;13.022;2023-03-29T00:08:28;3.50;69.50
14397;DHT22;50653;47.810;13.022;2023-03-29T00:10:56;3.50;69.20
14397;DHT22;50653;47.810;13.022;2023-03-29T00:13:24;3.50;69.10
14397;DHT22;50653;47.810;13.022;2023-03-29T00:15:51;3.50;69.40
14397;DHT22;50653;47.810;13.022;2023-03-29T00:18:17;3.50;68.90
14397;DHT22;50653;47.810;13.022;2023-03-29T00:20:42;3.50;69.10
14397;DHT22;50653;47.810;13.022;2023-03-29T00:23:08;3.50;68.80
14397;DHT22;50653;47.810;13.022;2023-03-29T00:25:34;3.50;69.00
14397;DHT22;50653;47.810;13.022;2023-03-29T00:28:00;3.60;69.40
14397;DHT22;50653;47.810;13.022;2023-03-29T00:30:25;3.50;68.90
14397;DHT22;50653;47.810;13.022;2023-03-29T00:32:51;3.50;69.40
14397;DHT22;50653;47.810;13.022;2023-03-29T00:35:17;3.50;69.30
14397;DHT22;50653;47.810;13.022;2023-03-29T00:37:43;3.50;69.20
14397;DHT22;50653;47.810;13.022;2023-03-29T00:40:12;3.50;69.60
14397;DHT22;50653;47.810;13.022;2023-03-29T00:42:43;3.50;69.30
14397;DHT22;50653;47.810;13.022;2023-03-29T00:45:22;3.50;69.60
14397;DHT22;50653;47.810;13.022;2023-03-29T00:47:54;3.50;69.20
14397;DHT22;50653;47.810;13.022;2023-03-29T00:50:32;3.50;68.90
14397;DHT22;50653;47.810;13.022;2023-03-29T00:56:11;3.50;69.10
14397;DHT22;50653;47.810;13.022;2023-03-29T00:58:50;3.50;69.20
14397;DHT22;50653;47.810;13.022;2023-03-29T01:04:22;3.50;68.50
14397;DHT22;50653;47.810;13.022;2023-03-29T01:07:21;3.60;69.00
14397;DHT22;50653;47.810;13.022;2023-03-29T01:09:53;3.60;68.90
14397;DHT22;50653;47.810;13.022;2023-03-29T01:12:23;3.50;68.70
14397;DHT22;50653;47.810;13.022;2023-03-29T01:14:58;3.50;69.10
14397;DHT22;50653;47.810;13.022;2023-03-29T01:17:27;3.50;69.30
14397;DHT22;50653;47.810;13.022;2023-03-29T01:20:03;3.50;69.30
14397;DHT22;50653;47.810;13.022;2023-03-29T01:23:11;3.50;69.00
14397;DHT22;50653;47.810;13.022;2023-03-29T01:28:12;3.60;68.30
14397;DHT22;50653;47.810;13.022;2023-03-29T01:30:55;3.60;68.10
14397;DHT22;50653;47.810;13.022;2023-03-29T01:33:29;3.60;67.80
14397;DHT22;50653;47.810;13.022;2023-03-29T01:38:45;3.60;67.70
14397;DHT22;50653;47.810;13.022;2023-03-29T01:41:13;3.70;67.10
14397;DHT22;50653;47.810;13.022;2023-03-29T01:47:07;3.70;67.80
14397;DHT22;50653;47.810;13.022;2023-03-29T01:49:36;3.70;68.50
14397;DHT22;50653;47.810;13.022;2023-03-29T01:52:12;3.70;68.30
14397;DHT22;50653;47.810;13.022;2023-03-29T01:54:55;3.70;68.80
14397;DHT22;50653;47.810;13.022;2023-03-29T01:57:25;3.70;69.80
14397;DHT22;50653;47.810;13.022;2023-03-29T01:59:53;3.70;69.10
14397;DHT22;50653;47.810;13.022;2023-03-29T02:02:20;3.70;68.90
14397;DHT22;50653;47.810;13.022;2023-03-29T02:04:52;3.60;68.80
14397;DHT22;50653;47.810;13.022;2023-03-29T02:07:21;3.60;68.70
14397;DHT22;50653;47.810;13.022;2023-03-29T02:09:49;3.60;68.40
14397;DHT22;50653;47.810;13.022;2023-03-29T02:12:17;3.70;68.30
14397;DHT22;50653;47.810;13.022;2023-03-29T02:14:50;3.70;68.10
14397;DHT22;50653;47.810;13.022;2023-03-29T02:17:22;3.80;68.60
14397;DHT22;50653;47.810;13.022;2023-03-29T02:19:53;3.80;69.10
14397;DHT22;50653;47.810;13.022;2023-03-29T02:22:26;3.80;68.80
14397;DHT22;50653;47.810;13.022;2023-03-29T02:24:55;3.80;68.80
14397;DHT22;50653;47.810;13.022;2023-03-29T02:29:30;3.80;69.20
14397;DHT22;50653;47.810;13.022;2023-03-29T02:32:10;3.90;69.70
14397;DHT22;50653;47.810;13.022;2023-03-29T02:34:49;3.90;69.60
14397;DHT22;50653;47.810;13.022;2023-03-29T02:37:19;3.90;69.80
14397;DHT22;50653;47.810;13.022;2023-03-29T02:39:50;3.90;70.10
14397;DHT22;50653;47.810;13.022;2023-03-29T02:42:17;3.90;70.30
14397;DHT22;50653;47.810;13.022;2023-03-29T02:44:46;3.90;70.10
14397;DHT22;50653;47.810;13.022;2023-03-29T02:47:24;3.80;70.30
14397;DHT22;50653;47.810;13.022;2023-03-29T02:49:51;3.80;70.30
14397;DHT22;50653;47.810;13.022;2023-03-29T02:52:22;3.90;70.70
14397;DHT22;50653;47.810;13.022;2023-03-29T02:54:49;3.90;71.00
14397;DHT22;50653;47.810;13.022;2023-03-29T02:57:17;3.90;71.00
14397;DHT22;50653;47.810;13.022;2023-03-29T02:59:46;4.00;71.70
14397;DHT22;50653;47.810;13.022;2023-03-29T03:02:13;4.00;71.70
14397;DHT22;50653;47.810;13.022;2023-03-29T03:04:40;4.00;71.90
14397;DHT22;50653;47.810;13.022;2023-03-29T03:07:06;4.00;71.50
14397;DHT22;50653;47.810;13.022;2023-03-29T03:09:32;4.00;72.00
14397;DHT22;50653;47.810;13.022;2023-03-29T03:11:58;3.90;72.70
14397;DHT22;50653;47.810;13.022;2023-03-29T03:14:24;4.00;73.90
14397;DHT22;50653;47.810;13.022;2023-03-29T03:16:50;3.90;75.50
14397;DHT22;50653;47.810;13.022;2023-03-29T03:19:17;3.90;75.70
14397;DHT22;50653;47.810;13.022;2023-03-29T03:21:44;3.80;76.20
14397;DHT22;50653;47.810;13.022;2023-03-29T03:24:11;3.70;77.60
14397;DHT22;50653;47.810;13.022;2023-03-29T03:26:37;3.70;76.70
14397;DHT22;50653;47.810;13.022;2023-03-29T03:29:04;3.70;77.40
14397;DHT22;50653;47.810;13.022;2023-03-29T03:31:49;3.70;77.20
14397;DHT22;50653;47.810;13.022;2023-03-29T03:34:33;3.70;77.50
14397;DHT22;50653;47.810;13.022;2023-03-29T03:37:00;3.70;77.40
14397;DHT22;50653;47.810;13.022;2023-03-29T03:39:31;3.60;77.40
14397;DHT22;50653;47.810;13.022;2023-03-29T03:41:58;3.70;77.50
14397;DHT22;50653;47.810;13.022;2023-03-29T03:44:26;3.60;78.00
14397;DHT22;50653;47.810;13.022;2023-03-29T03:47:08;3.70;78.60
14397;DHT22;50653;47.810;13.022;2023-03-29T03:49:35;3.70;78.70
14397;DHT22;50653;47.810;13.022;2023-03-29T03:52:02;3.70;78.90
14397;DHT22;50653;47.810;13.022;2023-03-29T03:54:27;3.60;79.00
14397;DHT22;50653;47.810;13.022;2023-03-29T03:57:16;3.60;79.40
14397;DHT22;50653;47.810;13.022;2023-03-29T03:59:47;3.60;79.40
14397;DHT22;50653;47.810;13.022;2023-03-29T04:02:19;3.60;79.60
14397;DHT22;50653;47.810;13.022;2023-03-29T04:04:45;3.60;79.60
14397;DHT22;50653;47.810;13.022;2023-03-29T04:07:17;3.60;79.50
14397;DHT22;50653;47.810;13.022;2023-03-29T04:09:58;3.60;80.10
14397;DHT22;50653;47.810;13.022;2023-03-29T04:12:40;3.60;80.00
14397;DHT22;50653;47.810;13.022;2023-03-29T04:15:08;3.50;80.20
14397;DHT22;50653;47.810;13.022;2023-03-29T04:17:35;3.50;80.20
14397;DHT22;50653;47.810;13.022;2023-03-29T04:20:20;3.50;80.40
14397;DHT22;50653;47.810;13.022;2023-03-29T04:22:47;3.50;80.70
14397;DHT22;50653;47.810;13.022;2023-03-29T04:25:12;3.50;80.10
14397;DHT22;50653;47.810;13.022;2023-03-29T04:27:38;3.50;80.90
14397;DHT22;50653;47.810;13.022;2023-03-29T04:30:11;3.40;80.60
14397;DHT22;50653;47.810;13.022;2023-03-29T04:32:58;3.40;80.50
14397;DHT22;50653;47.810;13.022;2023-03-29T04:35:24;3.40;80.60
14397;DHT22;50653;47.810;13.022;2023-03-29T04:37:50;3.50;80.70
14397;DHT22;50653;47.810;13.022;2023-03-29T04:40:20;3.40;80.90
14397;DHT22;50653;47.810;13.022;2023-03-29T04:42:56;3.40;81.00
14397;DHT22;50653;47.810;13.022;2023-03-29T04:45:21;3.50;80.60
14397;DHT22;50653;47.810;13.022;2023-03-29T04:48:04;3.40;81.20
14397;DHT22;50653;47.810;13.022;2023-03-29T04:50:30;3.40;81.50
14397;DHT22;50653;47.810;13.022;2023-03-29T04:52:56;3.50;81.10
14397;DHT22;50653;47.810;13.022;2023-03-29T04:55:26;3.50;81.70
14397;DHT22;50653;47.810;13.022;2023-03-29T04:57:59;3.50;81.90
14397;DHT22;50653;47.810;13.022;2023-03-29T05:00:30;3.50;81.90
14397;DHT22;50653;47.810;13.022;2023-03-29T05:03:11;3.50;82.40
14397;DHT22;50653;47.810;13.022;2023-03-29T05:05:46;3.50;82.60
14397;DHT22;50653;47.810;13.022;2023-03-29T05:08:12;3.50;82.40
14397;DHT22;50653;47.810;13.022;2023-03-29T05:10:57;3.50;82.70
14397;DHT22;50653;47.810;13.022;2023-03-29T05:13:25;3.50;82.80
14397;DHT22;50653;47.810;13.022;2023-03-29T05:15:51;3.50;83.40
14397;DHT22;50653;47.810;13.022;2023-03-29T05:18:16;3.50;83.90
14397;DHT22;50653;47.810;13.022;2023-03-29T05:20:42;3.60;84.30
14397;DHT22;50653;47.810;13.022;2023-03-29T05:23:13;3.50;84.20
14397;DHT22;50653;47.810;13.022;2023-03-29T05:26:14;3.60;84.00
14397;DHT22;50653;47.810;13.022;2023-03-29T05:28:41;3.60;83.80
14397;DHT22;50653;47.810;13.022;2023-03-29T05:31:08;3.70;84.20
14397;DHT22;50653;47.810;13.022;2023-03-29T05:33:37;3.70;83.90
14397;DHT22;50653;47.810;13.022;2023-03-29T05:36:10;3.70;84.90
14397;DHT22;50653;47.810;13.022;2023-03-29T05:38:42;3.70;84.30
14397;DHT22;50653;47.810;13.022;2023-03-29T05:41:15;3.70;84.60
14397;DHT22;50653;47.810;13.022;2023-03-29T05:44:00;3.70;84.80
14397;DHT22;50653;47.810;13.022;2023-03-29T05:46:27;3.80;85.00
14397;DHT22;50653;47.810;13.022;2023-03-29T05:48:55;3.80;85.00
14397;DHT22;50653;47.810;13.022;2023-03-29T05:51:32;3.80;84.90
14397;DHT22;50653;47.810;13.022;2023-03-29T05:53:58;3.80;84.50
14397;DHT22;50653;47.810;13.022;2023-03-29T05:56:24;3.80;84.90
14397;DHT22;50653;47.810;13.022;2023-03-29T05:58:53;3.80;85.00
14397;DHT22;50653;47.810;13.022;2023-03-29T06:01:22;3.80;85.20
14397;DHT22;50653;47.810;13.022;2023-03-29T06:04:01;3.90;86.00
14397;DHT22;50653;47.810;13.022;2023-03-29T06:06:36;3.80;85.70
14397;DHT22;50653;47.810;13.022;2023-03-29T06:09:02;3.90;85.80
14397;DHT22;50653;47.810;13.022;2023-03-29T06:11:42;3.90;86.30
14397;DHT22;50653;47.810;13.022;2023-03-29T06:14:21;4.00;86.50
14397;DHT22;50653;47.810;13.022;2023-03-29T06:16:55;4.00;86.60
14397;DHT22;50653;47.810;13.022;2023-03-29T06:19:21;4.00;85.80
14397;DHT22;50653;47.810;13.022;2023-03-29T06:21:48;4.10;86.50
14397;DHT22;50653;47.810;13.022;2023-03-29T06:24:18;4.10;85.70
14397;DHT22;50653;47.810;13.022;2023-03-29T06:26:50;4.10;86.50
14397;DHT22;50653;47.810;13.022;2023-03-29T06:29:17;4.20;86.90
14397;DHT22;50653;47.810;13.022;2023-03-29T06:31:45;4.20;86.20
14397;DHT22;50653;47.810;13.022;2023-03-29T06:34:27;4.30;86.10
14397;DHT22;50653;47.810;13.022;2023-03-29T06:37:01;4.30;86.30
14397;DHT22;50653;47.810;13.022;2023-03-29T06:39:28;4.30;87.00
14397;DHT22;50653;47.810;13.022;2023-03-29T06:42:14;4.30;86.50
14397;DHT22;50653;47.810;13.022;2023-03-29T06:45:09;4.30;87.00
14397;DHT22;50653;47.810;13.022;2023-03-29T06:47:37;4.30;87.20
14397;DHT22;50653;47.810;13.022;2023-03-29T06:50:03;4.30;87.50
14397;DHT22;50653;47.810;13.022;2023-03-29T06:52:43;4.40;88.20
14397;DHT22;50653;47.810;13.022;2023-03-29T06:55:09;4.40;88.60
14397;DHT22;50653;47.810;13.022;2023-03-29T06:57:37;4.40;88.40
14397;DHT22;50653;47.810;13.022;2023-03-29T07:00:05;4.40;88.60
14397;DHT22;50653;47.810;13.022;2023-03-29T07:03:15;4.40;88.70
14397;DHT22;50653;47.810;13.022;2023-03-29T07:05:50;4.40;89.20
14397;DHT22;50653;47.810;13.022;2023-03-29T07:08:17;4.50;89.50
14397;DHT22;50653;47.810;13.022;2023-03-29T07:11:07;4.50;89.90
14397;DHT22;50653;47.810;13.022;2023-03-29T07:13:54;4.50;89.20
14397;DHT22;50653;47.810;13.022;2023-03-29T07:16:20;4.50;89.40
14397;DHT22;50653;47.810;13.022;2023-03-29T07:19:03;4.60;90.30
14397;DHT22;50653;47.810;13.022;2023-03-29T07:21:50;4.60;89.70
14397;DHT22;50653;47.810;13.022;2023-03-29T07:24:16;4.60;89.80
14397;DHT22;50653;47.810;13.022;2023-03-29T07:26:45;4.70;90.20
14397;DHT22;50653;47.810;13.022;2023-03-29T07:29:14;4.70;90.30
14397;DHT22;50653;47.810;13.022;2023-03-29T07:31:40;4.70;90.50
14397;DHT22;50653;47.810;13.022;2023-03-29T07:34:27;4.80;90.40
14397;DHT22;50653;47.810;13.022;2023-03-29T07:36:54;4.80;90.20
14397;DHT22;50653;47.810;13.022;2023-03-29T07:39:22;4.80;90.30
14397;DHT22;50653;47.810;13.022;2023-03-29T07:42:08;4.80;90.30
14397;DHT22;50653;47.810;13.022;2023-03-29T07:44:34;4.90;90.60
14397;DHT22;50653;47.810;13.022;2023-03-29T07:47:00;4.90;90.70
14397;DHT22;50653;47.810;13.022;2023-03-29T07:49:26;4.90;90.80
14397;DHT22;50653;47.810;13.022;2023-03-29T07:51:53;4.90;90.50
14397;DHT22;50653;47.810;13.022;2023-03-29T07:54:19;5.00;90.50
14397;DHT22;50653;47.810;13.022;2023-03-29T07:57:11;5.00;90.60
14397;DHT22;50653;47.810;13.022;2023-03-29T07:59:44;5.00;90.50
14397;DHT22;50653;47.810;13.022;2023-03-29T08:02:16;5.00;90.60
14397;DHT22;50653;47.810;13.022;2023-03-29T08:04:45;5.00;90.60
14397;DHT22;50653;47.810;13.022;2023-03-29T08:07:15;5.10;90.70
14397;DHT22;50653;47.810;13.022;2023-03-29T08:10:02;5.10;90.60
14397;DHT22;50653;47.810;13.022;2023-03-29T08:13:07;5.20;90.90
14397;DHT22;50653;47.810;13.022;2023-03-29T08:15:56;5.20;90.70
14397;DHT22;50653;47.810;13.022;2023-03-29T08:18:31;5.20;90.60
14397;DHT22;50653;47.810;13.022;2023-03-29T08:20:58;5.20;90.80
14397;DHT22;50653;47.810;13.022;2023-03-29T08:23:24;5.20;90.70
14397;DHT22;50653;47.810;13.022;2023-03-29T08:26:05;5.30;90.70
14397;DHT22;50653;47.810;13.022;2023-03-29T08:28:33;5.20;90.30
14397;DHT22;50653;47.810;13.022;2023-03-29T08:30:59;5.20;90.50
14397;DHT22;50653;47.810;13.022;2023-03-29T08:33:25;5.30;90.90
14397;DHT22;50653;47.810;13.022;2023-03-29T08:36:02;5.40;90.50
14397;DHT22;50653;47.810;13.022;2023-03-29T08:38:31;5.40;90.40
14397;DHT22;50653;47.810;13.022;2023-03-29T08:40:57;5.40;90.50
14397;DHT22;50653;47.810;13.022;2023-03-29T08:43:28;5.50;90.80
14397;DHT22;50653;47.810;13.022;2023-03-29T08:46:55;5.50;90.60
14397;DHT22;50653;47.810;13.022;2023-03-29T08:49:36;5.60;90.70
14397;DHT22;50653;47.810;13.022;2023-03-29T08:52:20;5.70;90.90
14397;DHT22;50653;47.810;13.022;2023-03-29T08:54:49;5.60;90.60
14397;DHT22;50653;47.810;13.022;2023-03-29T08:57:48;5.60;90.40
14397;DHT22;50653;47.810;13.022;2023-03-29T09:00:44;5.60;90.40
14397;DHT22;50653;47.810;13.022;2023-03-29T09:03:22;5.60;90.30
14397;DHT22;50653;47.810;13.022;2023-03-29T09:06:02;5.70;90.70
14397;DHT22;50653;47.810;13.022;2023-03-29T09:08:29;5.80;90.80
14397;DHT22;50653;47.810;13.022;2023-03-29T09:11:07;5.80;90.60
14397;DHT22;50653;47.810;13.022;2023-03-29T09:24:59;6.00;90.40
14397;DHT22;50653;47.810;13.022;2023-03-29T09:27:33;6.00;90.60
14397;DHT22;50653;47.810;13.022;2023-03-29T09:30:33;6.10;90.50
14397;DHT22;50653;47.810;13.022;2023-03-29T09:36:17;6.00;90.80
14397;DHT22;50653;47.810;13.022;2023-03-29T09:38:48;6.10;90.80
14397;DHT22;50653;47.810;13.022;2023-03-29T09:41:45;6.10;90.70
14397;DHT22;50653;47.810;13.022;2023-03-29T09:44:15;6.10;90.60
14397;DHT22;50653;47.810;13.022;2023-03-29T09:46:52;6.00;90.80
14397;DHT22;50653;47.810;13.022;2023-03-29T09:49:32;6.10;90.80
14397;DHT22;50653;47.810;13.022;2023-03-29T09:52:06;6.10;90.90
14397;DHT22;50653;47.810;13.022;2023-03-29T09:54:33;6.20;91.20
14397;DHT22;50653;47.810;13.022;2023-03-29T09:57:34;6.20;91.10
14397;DHT22;50653;47.810;13.022;2023-03-29T10:00:02;6.20;91.40
14397;DHT22;50653;47.810;13.022;2023-03-29T10:02:39;6.30;91.20
14397;DHT22;50653;47.810;13.022;2023-03-29T10:05:06;6.30;91.20
14397;DHT22;50653;47.810;13.022;2023-03-29T10:07:44;6.30;91.10
14397;DHT22;50653;47.810;13.022;2023-03-29T10:10:30;6.30;91.10
14397;DHT22;50653;47.810;13.022;2023-03-29T10:13:01;6.40;91.20
14397;DHT22;50653;47.810;13.022;2023-03-29T10:15:28;6.50;91.20
14397;DHT22;50653;47.810;13.022;2023-03-29T10:18:01;6.50;91.20
14397;DHT22;50653;47.810;13.022;2023-03-29T10:20:28;6.40;90.90
14397;DHT22;50653;47.810;13.022;2023-03-29T10:22:56;6.50;91.30
14397;DHT22;50653;47.810;13.022;2023-03-29T10:25:30;6.60;90.80
14397;DHT22;50653;47.810;13.022;2023-03-29T10:28:04;6.50;90.90
14397;DHT22;50653;47.810;13.022;2023-03-29T10:30:34;6.60;91.20
14397;DHT22;50653;47.810;13.022;2023-03-29T10:33:01;6.70;91.20
14397;DHT22;50653;47.810;13.022;2023-03-29T10:35:37;6.80;91.20
14397;DHT22;50653;47.810;13.022;2023-03-29T10:38:13;6.80;91.20
14397;DHT22;50653;47.810;13.022;2023-03-29T10:40:46;6.80;91.30
14397;DHT22;50653;47.810;13.022;2023-03-29T10:45:42;6.90;91.60
14397;DHT22;50653;47.810;13.022;2023-03-29T10:48:13;6.90;91.60
14397;DHT22;50653;47.810;13.022;2023-03-29T10:50:40;7.00;91.40
14397;DHT22;50653;47.810;13.022;2023-03-29T10:53:14;7.10;91.50
14397;DHT22;50653;47.810;13.022;2023-03-29T10:55:49;7.20;91.80
14397;DHT22;50653;47.810;13.022;2023-03-29T10:58:59;7.20;91.60
14397;DHT22;50653;47.810;13.022;2023-03-29T11:01:32;7.30;91.80
14397;DHT22;50653;47.810;13.022;2023-03-29T11:04:29;7.40;92.00
14397;DHT22;50653;47.810;13.022;2023-03-29T11:12:44;7.40;91.90
14397;DHT22;50653;47.810;13.022;2023-03-29T11:23:34;7.60;92.10
14397;DHT22;50653;47.810;13.022;2023-03-29T11:28:55;7.60;91.80
14397;DHT22;50653;47.810;13.022;2023-03-29T11:31:39;7.80;92.30
14397;DHT22;50653;47.810;13.022;2023-03-29T11:34:22;7.80;92.00
14397;DHT22;50653;47.810;13.022;2023-03-29T11:42:32;7.80;91.70
14397;DHT22;50653;47.810;13.022;2023-03-29T11:45:02;7.90;91.90
14397;DHT22;50653;47.810;13.022;2023-03-29T11:47:32;7.80;91.90
14397;DHT22;50653;47.810;13.022;2023-03-29T11:50:27;7.80;92.20
14397;DHT22;50653;47.810;13.022;2023-03-29T11:53:02;8.10;92.30
14397;DHT22;50653;47.810;13.022;2023-03-29T11:55:32;8.30;92.10
14397;DHT22;50653;47.810;13.022;2023-03-29T11:58:21;8.20;92.60
14397;DHT22;50653;47.810;13.022;2023-03-29T12:00:59;8.30;92.20
14397;DHT22;50653;47.810;13.022;2023-03-29T12:04:05;8.40;91.70
14397;DHT22;50653;47.810;13.022;2023-03-29T12:07:00;8.30;91.50
14397;DHT22;50653;47.810;13.022;2023-03-29T12:09:36;8.50;91.50
14397;DHT22;50653;47.810;13.022;2023-03-29T12:12:12;8.40;91.60
14397;DHT22;50653;47.810;13.022;2023-03-29T12:15:09;8.60;91.50
14397;DHT22;50653;47.810;13.022;2023-03-29T12:17:45;8.60;91.40
14397;DHT22;50653;47.810;13.022;2023-03-29T12:20:25;8.50;91.60
14397;DHT22;50653;47.810;13.022;2023-03-29T12:22:56;8.40;91.60
14397;DHT22;50653;47.810;13.022;2023-03-29T12:25:46;8.50;91.80
14397;DHT22;50653;47.810;13.022;2023-03-29T12:31:27;8.40;92.00
14397;DHT22;50653;47.810;13.022;2023-03-29T12:34:09;8.30;92.10
14397;DHT22;50653;47.810;13.022;2023-03-29T12:37:15;8.40;92.60
14397;DHT22;50653;47.810;13.022;2023-03-29T12:40:13;8.50;92.20
14397;DHT22;50653;47.810;13.022;2023-03-29T12:43:07;8.60;92.70
14397;DHT22;50653;47.810;13.022;2023-03-29T12:45:40;8.70;92.80
14397;DHT22;50653;47.810;13.022;2023-03-29T12:48:14;8.80;93.00
14397;DHT22;50653;47.810;13.022;2023-03-29T12:50:50;8.70;92.70
14397;DHT22;50653;47.810;13.022;2023-03-29T12:53:23;8.70;92.40
14397;DHT22;50653;47.810;13.022;2023-03-29T12:58:42;8.90;92.40
14397;DHT22;50653;47.810;13.022;2023-03-29T13:01:25;9.10;92.40
14397;DHT22;50653;47.810;13.022;2023-03-29T13:04:08;9.20;92.20
14397;DHT22;50653;47.810;13.022;2023-03-29T13:06:54;9.20;92.70
14397;DHT22;50653;47.810;13.022;2023-03-29T13:23:22;9.40;92.10
14397;DHT22;50653;47.810;13.022;2023-03-29T13:34:17;9.70;92.10
14397;DHT22;50653;47.810;13.022;2023-03-29T13:36:56;9.70;91.60
14397;DHT22;50653;47.810;13.022;2023-03-29T13:39:30;9.60;91.50
14397;DHT22;50653;47.810;13.022;2023-03-29T13:47:47;9.60;92.40
14397;DHT22;50653;47.810;13.022;2023-03-29T13:50:17;9.60;92.00
14397;DHT22;50653;47.810;13.022;2023-03-29T13:53:02;9.60;91.90
14397;DHT22;50653;47.810;13.022;2023-03-29T13:55:32;9.60;92.00
14397;DHT22;50653;47.810;13.022;2023-03-29T13:58:08;9.60;91.50
14397;DHT22;50653;47.810;13.022;2023-03-29T14:00:43;9.60;91.10
14397;DHT22;50653;47.810;13.022;2023-03-29T14:03:13;9.70;91.70
14397;DHT22;50653;47.810;13.022;2023-03-29T14:05:42;9.70;91.20
14397;DHT22;50653;47.810;13.022;2023-03-29T14:08:19;9.60;91.20
14397;DHT22;50653;47.810;13.022;2023-03-29T14:10:46;9.50;91.30
14397;DHT22;50653;47.810;13.022;2023-03-29T14:13:15;9.50;91.60
14397;DHT22;50653;47.810;13.022;2023-03-29T14:16:02;9.60;91.60
14397;DHT22;50653;47.810;13.022;2023-03-29T14:18:36;9.80;92.20
14397;DHT22;50653;47.810;13.022;2023-03-29T14:21:03;9.80;91.50
14397;DHT22;50653;47.810;13.022;2023-03-29T14:23:36;9.80;91.60
14397;DHT22;50653;47.810;13.022;2023-03-29T14:26:14;10.00;91.10
14397;DHT22;50653;47.810;13.022;2023-03-29T14:28:48;9.90;91.10
14397;DHT22;50653;47.810;13.022;2023-03-29T14:31:19;10.10;91.00
14397;DHT22;50653;47.810;13.022;2023-03-29T14:33:54;9.90;91.30
14397;DHT22;50653;47.810;13.022;2023-03-29T14:36:20;10.10;91.10
14397;DHT22;50653;47.810;13.022;2023-03-29T14:38:52;10.10;90.90
14397;DHT22;50653;47.810;13.022;2023-03-29T14:41:18;10.00;91.20
14397;DHT22;50653;47.810;13.022;2023-03-29T14:43:45;10.00;91.30
14397;DHT22;50653;47.810;13.022;2023-03-29T14:46:13;9.90;91.40
14397;DHT22;50653;47.810;13.022;2023-03-29T14:48:40;10.10;91.20
14397;DHT22;50653;47.810;13.022;2023-03-29T14:51:06;10.10;90.90
14397;DHT22;50653;47.810;13.022;2023-03-29T14:53:35;10.20;91.60
14397;DHT22;50653;47.810;13.022;2023-03-29T14:56:03;10.30;91.30
14397;DHT22;50653;47.810;13.022;2023-03-29T14:58:35;10.40;91.40
14397;DHT22;50653;47.810;13.022;2023-03-29T15:01:16;10.40;91.30
14397;DHT22;50653;47.810;13.022;2023-03-29T15:03:43;10.50;91.30
14397;DHT22;50653;47.810;13.022;2023-03-29T15:06:11;10.30;91.00
14397;DHT22;50653;47.810;13.022;2023-03-29T15:08:39;10.20;91.20
14397;DHT22;50653;47.810;13.022;2023-03-29T15:11:16;10.30;91.10
14397;DHT22;50653;47.810;13.022;2023-03-29T15:13:43;10.40;91.10
14397;DHT22;50653;47.810;13.022;2023-03-29T15:16:13;10.20;91.30
14397;DHT22;50653;47.810;13.022;2023-03-29T15:18:40;10.00;91.20
14397;DHT22;50653;47.810;13.022;2023-03-29T15:21:07;10.10;91.30
14397;DHT22;50653;47.810;13.022;2023-03-29T15:23:57;10.10;91.10
14397;DHT22;50653;47.810;13.022;2023-03-29T15:26:29;10.20;91.50
14397;DHT22;50653;47.810;13.022;2023-03-29T15:31:37;10.10;91.20
14397;DHT22;50653;47.810;13.022;2023-03-29T15:34:24;10.10;91.20
14397;DHT22;50653;47.810;13.022;2023-03-29T15:36:50;10.00;91.50
14397;DHT22;50653;47.810;13.022;2023-03-29T15:39:17;10.10;91.70
14397;DHT22;50653;47.810;13.022;2023-03-29T15:41:46;10.00;91.60
14397;DHT22;50653;47.810;13.022;2023-03-29T15:44:15;10.10;91.50
14397;DHT22;50653;47.810;13.022;2023-03-29T15:46:43;10.20;91.30
14397;DHT22;50653;47.810;13.022;2023-03-29T15:49:12;10.30;91.10
14397;DHT22;50653;47.810;13.022;2023-03-29T15:51:39;10.10;91.10
14397;DHT22;50653;47.810;13.022;2023-03-29T15:54:05;10.10;91.10
14397;DHT22;50653;47.810;13.022;2023-03-29T15:56:34;10.10;91.20
14397;DHT22;50653;47.810;13.022;2023-03-29T15:59:03;10.00;91.30
14397;DHT22;50653;47.810;13.022;2023-03-29T16:01:34;10.10;91.50
14397;DHT22;50653;47.810;13.022;2023-03-29T16:04:09;10.10;91.40
14397;DHT22;50653;47.810;13.022;2023-03-29T16:06:35;10.10;91.20
14397;DHT22;50653;47.810;13.022;2023-03-29T16:09:03;10.00;91.30
14397;DHT22;50653;47.810;13.022;2023-03-29T16:11:29;10.10;91.40
14397;DHT22;50653;47.810;13.022;2023-03-29T16:13:55;10.20;91.80
14397;DHT22;50653;47.810;13.022;2023-03-29T16:16:21;10.30;91.80
14397;DHT22;50653;47.810;13.022;2023-03-29T16:18:47;10.30;91.50
14397;DHT22;50653;47.810;13.022;2023-03-29T16:21:15;10.10;91.80
14397;DHT22;50653;47.810;13.022;2023-03-29T16:23:43;10.10;92.10
14397;DHT22;50653;47.810;13.022;2023-03-29T16:26:11;10.20;92.20
14397;DHT22;50653;47.810;13.022;2023-03-29T16:28:38;10.10;92.40
14397;DHT22;50653;47.810;13.022;2023-03-29T16:31:04;9.90;93.70
14397;DHT22;50653;47.810;13.022;2023-03-29T16:33:30;10.00;93.50
14397;DHT22;50653;47.810;13.022;2023-03-29T16:35:57;10.00;93.70
14397;DHT22;50653;47.810;13.022;2023-03-29T16:38:23;10.10;94.20
14397;DHT22;50653;47.810;13.022;2023-03-29T16:40:50;10.10;94.20
14397;DHT22;50653;47.810;13.022;2023-03-29T16:43:16;10.00;94.40
14397;DHT22;50653;47.810;13.022;2023-03-29T16:45:43;10.10;95.30
14397;DHT22;50653;47.810;13.022;2023-03-29T16:48:17;10.10;94.90
14397;DHT22;50653;47.810;13.022;2023-03-29T16:50:44;10.10;95.50
14397;DHT22;50653;47.810;13.022;2023-03-29T16:53:13;10.10;96.00
14397;DHT22;50653;47.810;13.022;2023-03-29T16:55:38;10.10;96.50
14397;DHT22;50653;47.810;13.022;2023-03-29T16:58:04;10.20;96.70
14397;DHT22;50653;47.810;13.022;2023-03-29T17:00:30;10.10;97.20
14397;DHT22;50653;47.810;13.022;2023-03-29T17:02:57;10.10;96.50
14397;DHT22;50653;47.810;13.022;2023-03-29T17:05:26;10.00;97.60
14397;DHT22;50653;47.810;13.022;2023-03-29T17:07:52;10.10;97.80
14397;DHT22;50653;47.810;13.022;2023-03-29T17:10:19;10.10;97.60
14397;DHT22;50653;47.810;13.022;2023-03-29T17:12:46;10.10;97.90
14397;DHT22;50653;47.810;13.022;2023-03-29T17:15:12;10.10;98.20
14397;DHT22;50653;47.810;13.022;2023-03-29T17:17:37;10.10;98.60
14397;DHT22;50653;47.810;13.022;2023-03-29T17:20:05;10.10;98.30
14397;DHT22;50653;47.810;13.022;2023-03-29T17:22:33;10.10;98.50
14397;DHT22;50653;47.810;13.022;2023-03-29T17:24:59;10.10;98.50
14397;DHT22;50653;47.810;13.022;2023-03-29T17:27:28;10.00;98.80
14397;DHT22;50653;47.810;13.022;2023-03-29T17:29:53;10.10;99.00
14397;DHT22;50653;47.810;13.022;2023-03-29T17:32:19;10.10;98.70
14397;DHT22;50653;47.810;13.022;2023-03-29T17:34:45;10.10;98.60
14397;DHT22;50653;47.810;13.022;2023-03-29T17:37:12;10.10;99.30